createdAt,value
2017-05-15T00:02:19.424Z,10.70
2017-05-15T00:04:46.352Z,10.80
2017-05-15T00:07:13.564Z,10.90
2017-05-15T00:09:41.270Z,10.80
2017-05-15T00:12:08.203Z,10.80
2017-05-15T00:14:35.107Z,10.70
2017-05-15T00:17:02.058Z,10.70
2017-05-15T00:19:29.772Z,10.70
2017-05-15T00:21:56.699Z,10.70
2017-05-15T00:24:23.607Z,10.70
2017-05-15T00:26:51.314Z,10.70
2017-05-15T00:29:18.240Z,10.80
2017-05-15T00:31:45.193Z,10.80
2017-05-15T00:34:12.122Z,10.80
2017-05-15T00:36:39.099Z,10.60
2017-05-15T00:39:06.025Z,10.60
2017-05-15T00:41:32.944Z,10.50
2017-05-15T00:43:59.908Z,10.60
2017-05-15T00:46:26.831Z,10.50
2017-05-15T00:48:54.507Z,10.50
2017-05-15T00:51:21.488Z,10.50
2017-05-15T00:53:48.401Z,10.50
2017-05-15T00:56:15.327Z,10.50
2017-05-15T00:58:43.087Z,10.60
2017-05-15T01:01:10.739Z,10.50
2017-05-15T01:03:37.721Z,10.40
2017-05-15T01:06:04.677Z,10.40
2017-05-15T01:08:31.592Z,10.40
2017-05-15T01:10:58.524Z,10.30
2017-05-15T01:13:25.472Z,10.30
2017-05-15T01:15:53.151Z,10.30
2017-05-15T01:18:20.125Z,10.40
2017-05-15T01:20:47.078Z,10.40
2017-05-15T01:23:14.001Z,10.40
2017-05-15T01:25:40.930Z,10.30
2017-05-15T01:28:07.888Z,10.40
2017-05-15T01:30:34.825Z,10.20
2017-05-15T01:33:01.766Z,10.10
2017-05-15T01:35:28.753Z,10.10
2017-05-15T01:37:55.684Z,10.10
2017-05-15T01:40:22.660Z,10.20
2017-05-15T01:42:49.672Z,10.20
2017-05-15T01:45:16.631Z,10.30
2017-05-15T01:47:43.581Z,10.20
2017-05-15T01:50:10.580Z,10.10
2017-05-15T01:52:37.544Z,10.00
2017-05-15T01:55:04.525Z,10.00
2017-05-15T01:57:31.511Z,9.90
2017-05-15T01:59:58.473Z,9.80
2017-05-15T02:02:25.417Z,9.80
2017-05-15T02:04:52.423Z,9.80
2017-05-15T02:07:20.272Z,9.80
2017-05-15T02:09:47.228Z,9.90
2017-05-15T02:12:14.224Z,10.00
2017-05-15T02:14:41.229Z,10.10
2017-05-15T02:17:08.985Z,10.10
2017-05-15T02:19:35.975Z,10.20
2017-05-15T02:22:02.924Z,10.20
2017-05-15T02:24:29.916Z,10.30
2017-05-15T02:26:56.863Z,10.10
2017-05-15T02:29:23.808Z,9.80
2017-05-15T02:31:50.792Z,9.70
2017-05-15T02:34:17.764Z,9.70
2017-05-15T02:36:44.717Z,9.80
2017-05-15T02:39:11.705Z,10.00
2017-05-15T02:41:39.404Z,10.00
2017-05-15T02:44:06.348Z,10.00
2017-05-15T02:46:33.308Z,10.10
2017-05-15T02:49:00.292Z,10.20
2017-05-15T02:51:27.987Z,10.20
2017-05-15T02:53:54.929Z,10.30
2017-05-15T02:56:21.910Z,10.30
2017-05-15T02:58:48.849Z,10.30
2017-05-15T03:01:15.833Z,10.30
2017-05-15T03:03:43.540Z,10.30
2017-05-15T03:06:10.496Z,10.30
2017-05-15T03:08:37.466Z,10.20
2017-05-15T03:11:04.398Z,10.20
2017-05-15T03:13:31.353Z,10.20
2017-05-15T03:15:58.337Z,10.20
2017-05-15T03:18:25.305Z,10.20
2017-05-15T03:20:52.288Z,10.30
2017-05-15T03:23:19.261Z,10.30
2017-05-15T03:25:46.944Z,10.30
2017-05-15T03:28:13.921Z,10.30
2017-05-15T03:30:40.907Z,10.30
2017-05-15T03:33:07.896Z,10.30
2017-05-15T03:35:34.850Z,10.30
2017-05-15T03:38:01.820Z,10.30
2017-05-15T03:40:28.796Z,10.30
2017-05-15T03:42:56.512Z,10.30
2017-05-15T03:45:23.521Z,10.30
2017-05-15T03:47:50.504Z,10.30
2017-05-15T03:50:17.457Z,10.20
2017-05-15T03:52:44.412Z,10.10
2017-05-15T03:55:11.404Z,10.10
2017-05-15T03:57:38.349Z,10.10
2017-05-15T04:00:05.311Z,10.00
2017-05-15T04:02:32.300Z,9.90
2017-05-15T04:04:59.284Z,9.90
2017-05-15T04:07:26.262Z,9.90
2017-05-15T04:09:53.223Z,9.90
2017-05-15T04:12:20.165Z,10.00
2017-05-15T04:14:47.117Z,9.90
2017-05-15T04:17:14.082Z,10.00
2017-05-15T04:19:41.134Z,9.80
2017-05-15T04:22:08.100Z,9.80
2017-05-15T04:24:35.063Z,9.90
2017-05-15T04:27:02.053Z,9.90
2017-05-15T04:29:29.336Z,9.90
2017-05-15T04:31:57.028Z,10.00
2017-05-15T04:34:24.097Z,10.10
2017-05-15T04:36:51.057Z,10.10
2017-05-15T04:39:18.012Z,10.20
2017-05-15T04:41:45.008Z,10.20
2017-05-15T04:44:11.956Z,10.20
2017-05-15T04:46:38.920Z,10.10
2017-05-15T04:49:05.887Z,10.10
2017-05-15T04:51:32.844Z,10.10
2017-05-15T04:53:59.806Z,10.20
2017-05-15T04:56:27.548Z,9.90
2017-05-15T04:58:54.504Z,9.80
2017-05-15T05:01:22.200Z,9.80
2017-05-15T05:03:49.212Z,9.90
2017-05-15T05:06:16.916Z,10.10
2017-05-15T05:08:43.831Z,10.10
2017-05-15T05:11:11.624Z,10.00
2017-05-15T05:13:38.565Z,10.10
2017-05-15T05:16:05.563Z,10.10
2017-05-15T05:18:32.568Z,10.20
2017-05-15T05:21:11.703Z,10.40
2017-05-15T05:23:50.912Z,10.50
2017-05-15T05:26:29.892Z,10.60
2017-05-15T05:29:08.932Z,10.60
2017-05-15T05:32:00.766Z,10.60
2017-05-15T05:34:36.675Z,10.60
2017-05-15T05:37:14.529Z,10.60
2017-05-15T05:39:52.013Z,10.60
2017-05-15T05:42:23.564Z,10.80
2017-05-15T05:44:51.336Z,10.80
2017-05-15T05:47:19.041Z,10.80
2017-05-15T05:49:46.004Z,10.80
2017-05-15T05:52:13.000Z,10.60
2017-05-15T05:54:40.985Z,10.60
2017-05-15T05:57:09.908Z,10.60
2017-05-15T06:00:02.772Z,10.70
2017-05-15T06:02:41.940Z,10.60
2017-05-15T06:05:21.737Z,10.60
2017-05-15T06:08:00.916Z,10.60
2017-05-15T06:10:40.876Z,10.90
2017-05-15T06:13:20.407Z,11.50
2017-05-15T06:16:00.300Z,11.80
2017-05-15T06:18:39.453Z,12.10
2017-05-15T06:21:06.229Z,12.20
2017-05-15T06:23:45.423Z,12.60
2017-05-15T06:26:24.549Z,13.00
2017-05-15T06:28:51.389Z,13.60
2017-05-15T06:31:18.237Z,14.00
2017-05-15T06:33:45.092Z,14.40
2017-05-15T06:36:11.964Z,14.80
2017-05-15T06:38:51.132Z,15.20
2017-05-15T06:41:30.247Z,15.50
2017-05-15T06:43:57.085Z,16.00
2017-05-15T06:46:23.915Z,16.30
2017-05-15T06:48:50.796Z,16.50
2017-05-15T06:51:17.660Z,16.90
2017-05-15T06:53:44.523Z,17.30
2017-05-15T06:56:12.165Z,17.50
2017-05-15T06:58:39.046Z,17.60
2017-05-15T07:01:05.876Z,17.80
2017-05-15T07:03:33.463Z,18.10
2017-05-15T07:06:00.333Z,18.30
2017-05-15T07:08:27.092Z,18.70
2017-05-15T07:10:54.018Z,19.20
2017-05-15T07:13:20.990Z,19.50
2017-05-15T07:15:47.970Z,19.70
2017-05-15T07:18:14.906Z,19.70
2017-05-15T07:20:41.845Z,19.90
2017-05-15T07:23:08.830Z,20.30
2017-05-15T07:25:35.781Z,20.40
2017-05-15T07:28:02.702Z,20.70
2017-05-15T07:30:29.645Z,20.80
2017-05-15T07:32:56.600Z,21.10
2017-05-15T07:35:23.558Z,21.30
2017-05-15T07:37:50.492Z,21.90
2017-05-15T07:40:17.430Z,22.20
2017-05-15T07:42:44.391Z,22.60
2017-05-15T07:45:11.329Z,23.00
2017-05-15T07:47:38.281Z,23.00
2017-05-15T07:50:05.209Z,23.30
2017-05-15T07:52:32.195Z,23.60
2017-05-15T07:54:59.132Z,23.90
2017-05-15T07:57:26.056Z,24.30
2017-05-15T07:59:53.011Z,24.80
2017-05-15T08:02:19.987Z,24.90
2017-05-15T08:04:46.942Z,24.90
2017-05-15T08:07:14.633Z,24.50
2017-05-15T08:09:41.610Z,24.50
2017-05-15T08:12:08.641Z,24.70
2017-05-15T08:14:35.635Z,23.90
2017-05-15T08:17:02.572Z,23.00
2017-05-15T08:19:29.510Z,22.30
2017-05-15T08:21:56.468Z,22.00
2017-05-15T08:24:23.448Z,21.70
2017-05-15T08:26:50.399Z,22.80
2017-05-15T08:29:17.344Z,23.90
2017-05-15T08:31:44.308Z,24.70
2017-05-15T08:34:11.282Z,25.40
2017-05-15T08:36:38.241Z,25.90
2017-05-15T08:39:05.910Z,26.00
2017-05-15T08:41:33.609Z,26.80
2017-05-15T08:44:00.542Z,26.90
2017-05-15T08:46:27.485Z,26.80
2017-05-15T08:48:54.481Z,26.70
2017-05-15T08:51:21.418Z,26.10
2017-05-15T08:53:48.348Z,25.50
2017-05-15T08:56:15.313Z,24.80
2017-05-15T08:58:42.260Z,25.20
2017-05-15T09:01:09.188Z,26.10
2017-05-15T09:03:36.157Z,26.90
2017-05-15T09:06:03.123Z,27.50
2017-05-15T09:08:30.816Z,27.60
2017-05-15T09:10:57.756Z,27.20
2017-05-15T09:13:24.741Z,27.70
2017-05-15T09:15:51.662Z,26.60
2017-05-15T09:18:18.604Z,25.50
2017-05-15T09:20:45.559Z,24.80
2017-05-15T09:23:12.519Z,24.10
2017-05-15T09:25:39.444Z,23.70
2017-05-15T09:28:06.405Z,24.20
2017-05-15T09:30:33.372Z,25.60
2017-05-15T09:33:00.313Z,26.40
2017-05-15T09:35:27.236Z,27.80
2017-05-15T09:37:54.194Z,28.70
2017-05-15T09:40:21.148Z,28.20
2017-05-15T09:42:48.121Z,27.10
2017-05-15T09:45:15.110Z,25.80
2017-05-15T09:47:42.196Z,25.10
2017-05-15T09:50:09.877Z,24.30
2017-05-15T09:52:36.846Z,23.60
2017-05-15T09:55:03.782Z,23.00
2017-05-15T09:57:30.706Z,22.90
2017-05-15T09:59:57.652Z,22.90
2017-05-15T10:02:24.582Z,23.00
2017-05-15T10:04:52.276Z,23.10
2017-05-15T10:07:19.214Z,23.20
2017-05-15T10:09:46.148Z,23.80
2017-05-15T10:12:13.112Z,25.10
2017-05-15T10:14:40.083Z,26.20
2017-05-15T10:17:07.025Z,27.10
2017-05-15T10:19:33.983Z,27.80
2017-05-15T10:22:00.924Z,28.30
2017-05-15T10:24:27.863Z,27.70
2017-05-15T10:26:54.853Z,26.50
2017-05-15T10:29:22.541Z,25.40
2017-05-15T10:31:49.491Z,25.20
2017-05-15T10:34:16.490Z,24.80
2017-05-15T10:36:44.198Z,24.60
2017-05-15T10:39:11.178Z,25.50
2017-05-15T10:41:38.129Z,25.70
2017-05-15T10:44:05.101Z,25.40
2017-05-15T10:46:32.817Z,25.60
2017-05-15T10:48:59.762Z,26.60
2017-05-15T10:51:26.702Z,27.40
2017-05-15T10:53:53.674Z,27.60
2017-05-15T10:56:20.628Z,27.70
2017-05-15T10:58:47.577Z,27.40
2017-05-15T11:01:14.578Z,26.70
2017-05-15T11:03:41.544Z,26.70
2017-05-15T11:06:08.505Z,26.50
2017-05-15T11:08:35.477Z,25.90
2017-05-15T11:11:02.424Z,25.00
2017-05-15T11:13:30.092Z,24.70
2017-05-15T11:15:57.074Z,24.30
2017-05-15T11:18:24.049Z,23.90
2017-05-15T11:20:50.993Z,23.90
2017-05-15T11:23:17.925Z,23.80
2017-05-15T11:25:45.367Z,24.20
2017-05-15T11:28:12.304Z,24.30
2017-05-15T11:30:39.261Z,23.90
2017-05-15T11:33:06.241Z,23.80
2017-05-15T11:35:33.936Z,23.80
2017-05-15T11:38:00.893Z,24.10
2017-05-15T11:40:27.905Z,23.60
2017-05-15T11:42:55.586Z,23.50
2017-05-15T11:45:22.531Z,23.50
2017-05-15T11:47:49.507Z,23.30
2017-05-15T11:50:16.454Z,23.20
2017-05-15T11:52:43.841Z,23.40
2017-05-15T11:55:10.813Z,23.30
2017-05-15T11:57:37.773Z,23.10
2017-05-15T12:00:04.786Z,22.70
2017-05-15T12:02:32.563Z,22.40
2017-05-15T12:05:00.252Z,22.30
2017-05-15T12:07:27.189Z,22.30
2017-05-15T12:09:54.214Z,22.20
2017-05-15T12:12:21.946Z,22.50
2017-05-15T12:14:48.886Z,22.70
2017-05-15T12:17:15.881Z,22.70
2017-05-15T12:19:42.813Z,22.70
2017-05-15T12:22:09.777Z,22.50
2017-05-15T12:24:36.766Z,22.40
2017-05-15T12:27:03.715Z,22.30
2017-05-15T12:29:30.651Z,22.20
2017-05-15T12:31:57.616Z,22.10
2017-05-15T12:34:24.569Z,21.70
2017-05-15T12:36:51.509Z,21.70
2017-05-15T12:39:18.508Z,21.60
2017-05-15T12:41:45.453Z,21.70
2017-05-15T12:44:12.414Z,21.70
2017-05-15T12:46:39.413Z,21.70
2017-05-15T12:49:06.341Z,21.60
2017-05-15T12:51:34.006Z,21.40
2017-05-15T12:54:00.972Z,21.30
2017-05-15T12:56:27.913Z,21.20
2017-05-15T12:58:54.869Z,21.30
2017-05-15T13:01:21.868Z,21.00
2017-05-15T13:03:48.864Z,21.10
2017-05-15T13:06:15.801Z,21.30
2017-05-15T13:08:42.749Z,21.40
2017-05-15T13:11:09.726Z,21.40
2017-05-15T13:13:36.676Z,21.30
2017-05-15T13:16:03.612Z,21.20
2017-05-15T13:18:30.572Z,21.30
2017-05-15T13:20:57.517Z,21.10
2017-05-15T13:23:24.498Z,20.80
2017-05-15T13:25:52.182Z,20.80
2017-05-15T13:28:19.116Z,20.60
2017-05-15T13:30:46.077Z,20.30
2017-05-15T13:33:13.007Z,19.90
2017-05-15T13:35:39.969Z,19.80
2017-05-15T13:38:06.901Z,20.00
2017-05-15T13:40:33.902Z,19.90
2017-05-15T13:43:00.849Z,19.70
2017-05-15T13:45:27.792Z,19.50
2017-05-15T13:47:54.752Z,19.60
2017-05-15T13:50:22.417Z,19.60
2017-05-15T13:52:49.360Z,19.70
2017-05-15T13:55:16.340Z,19.70
2017-05-15T13:57:43.264Z,19.70
2017-05-15T14:00:10.210Z,19.80
2017-05-15T14:02:37.172Z,19.80
2017-05-15T14:05:04.185Z,19.90
2017-05-15T14:07:31.861Z,19.80
2017-05-15T14:09:59.537Z,19.90
2017-05-15T14:12:26.517Z,19.90
2017-05-15T14:14:53.453Z,19.90
2017-05-15T14:17:20.542Z,20.00
2017-05-15T14:19:48.273Z,20.10
2017-05-15T14:22:15.204Z,20.20
2017-05-15T14:24:42.169Z,20.10
2017-05-15T14:27:09.136Z,20.10
2017-05-15T14:29:36.080Z,20.00
2017-05-15T14:32:03.009Z,19.90
2017-05-15T14:34:30.005Z,19.80
2017-05-15T14:36:57.077Z,19.70
2017-05-15T14:39:24.014Z,19.70
2017-05-15T14:41:50.978Z,19.50
2017-05-15T14:44:17.959Z,19.60
2017-05-15T14:46:44.912Z,19.70
2017-05-15T14:49:12.653Z,19.60
2017-05-15T14:51:39.578Z,19.60
2017-05-15T14:54:06.525Z,19.30
2017-05-15T14:56:33.521Z,19.30
2017-05-15T14:59:00.485Z,19.50
2017-05-15T15:01:27.452Z,19.40
2017-05-15T15:03:54.434Z,19.50
2017-05-15T15:06:21.386Z,19.50
2017-05-15T15:08:48.364Z,19.40
2017-05-15T15:11:15.313Z,19.50
2017-05-15T15:13:42.251Z,19.40
2017-05-15T15:16:09.202Z,19.40
2017-05-15T15:18:36.193Z,19.40
2017-05-15T15:21:03.174Z,19.40
2017-05-15T15:23:30.101Z,19.30
2017-05-15T15:25:57.066Z,19.20
2017-05-15T15:28:24.013Z,19.00
2017-05-15T15:30:50.949Z,19.00
2017-05-15T15:33:17.944Z,18.90
2017-05-15T15:35:44.886Z,18.90
2017-05-15T15:38:11.845Z,18.90
2017-05-15T15:40:38.840Z,19.00
2017-05-15T15:43:05.784Z,18.90
2017-05-15T15:45:32.729Z,18.90
2017-05-15T15:47:59.717Z,18.90
2017-05-15T15:50:36.702Z,18.90
2017-05-15T15:53:03.681Z,18.90
2017-05-15T15:55:31.391Z,18.80
2017-05-15T15:57:58.337Z,18.80
2017-05-15T16:00:25.335Z,18.90
2017-05-15T16:02:53.022Z,18.80
2017-05-15T16:05:19.982Z,18.90
2017-05-15T16:07:46.964Z,18.80
2017-05-15T16:10:13.908Z,18.90
2017-05-15T16:12:40.961Z,18.90
2017-05-15T16:15:07.941Z,18.90
2017-05-15T16:17:34.894Z,18.90
2017-05-15T16:20:01.853Z,18.80
2017-05-15T16:22:28.825Z,18.80
2017-05-15T16:24:55.789Z,18.70
2017-05-15T16:27:22.724Z,18.60
2017-05-15T16:29:49.705Z,18.60
2017-05-15T16:32:16.653Z,18.60
2017-05-15T16:34:43.602Z,18.60
2017-05-15T16:37:10.984Z,18.50
2017-05-15T16:39:37.938Z,18.50
2017-05-15T16:42:04.888Z,18.50
2017-05-15T16:44:31.873Z,18.30
2017-05-15T16:46:59.566Z,18.10
2017-05-15T16:49:26.509Z,18.10
2017-05-15T16:51:53.466Z,18.10
2017-05-15T16:54:20.414Z,18.10
2017-05-15T16:56:47.406Z,18.20
2017-05-15T16:59:14.338Z,18.20
2017-05-15T17:01:41.299Z,18.10
2017-05-15T17:04:08.242Z,18.00
2017-05-15T17:06:35.929Z,18.10
2017-05-15T17:09:02.953Z,18.00
2017-05-15T17:11:29.997Z,18.00
2017-05-15T17:13:57.774Z,17.90
2017-05-15T17:16:25.470Z,18.00
2017-05-15T17:18:52.425Z,17.90
2017-05-15T17:21:19.457Z,17.90
2017-05-15T17:23:46.406Z,17.90
2017-05-15T17:26:13.412Z,18.00
2017-05-15T17:28:41.184Z,17.70
2017-05-15T17:31:09.026Z,17.60
2017-05-15T17:33:36.175Z,17.80
2017-05-15T17:36:03.424Z,17.70
2017-05-15T17:38:30.813Z,17.60
2017-05-15T17:40:58.076Z,17.50
2017-05-15T17:43:25.390Z,17.40
2017-05-15T17:45:52.726Z,17.50
2017-05-15T17:48:20.052Z,17.40
2017-05-15T17:50:47.327Z,17.40
2017-05-15T17:53:14.654Z,17.40
2017-05-15T17:55:41.927Z,17.20
2017-05-15T17:58:09.916Z,17.20
2017-05-15T18:00:37.241Z,17.10
2017-05-15T18:03:05.208Z,17.10
2017-05-15T18:05:33.241Z,17.00
2017-05-15T18:08:00.544Z,17.00
2017-05-15T18:10:27.834Z,17.10
2017-05-15T18:12:55.116Z,17.00
2017-05-15T18:15:22.446Z,16.90
2017-05-15T18:17:49.704Z,16.90
2017-05-15T18:20:16.966Z,17.00
2017-05-15T18:22:44.283Z,17.00
2017-05-15T18:25:11.586Z,16.80
2017-05-15T18:27:38.897Z,16.80
2017-05-15T18:30:06.211Z,16.70
2017-05-15T18:32:34.219Z,16.70
2017-05-15T18:35:01.517Z,16.70
2017-05-15T18:37:28.772Z,16.60
2017-05-15T18:39:56.060Z,16.60
2017-05-15T18:42:23.393Z,16.50
2017-05-15T18:44:51.441Z,16.30
2017-05-15T18:47:18.726Z,16.30
2017-05-15T18:49:46.015Z,16.20
2017-05-15T18:52:13.372Z,16.20
2017-05-15T18:54:40.654Z,16.10
2017-05-15T18:57:07.967Z,16.10
2017-05-15T18:59:35.235Z,16.10
2017-05-15T19:02:02.514Z,16.00
2017-05-15T19:04:29.888Z,15.90
2017-05-15T19:06:57.153Z,15.90
2017-05-15T19:09:24.569Z,15.90
2017-05-15T19:11:51.847Z,15.80
2017-05-15T19:14:19.890Z,15.70
2017-05-15T19:16:47.197Z,15.60
2017-05-15T19:19:14.521Z,15.70
2017-05-15T19:21:41.764Z,15.60
2017-05-15T19:24:09.788Z,15.50
2017-05-15T19:26:37.101Z,15.50
2017-05-15T19:29:05.144Z,15.40
2017-05-15T19:31:32.402Z,15.20
2017-05-15T19:33:59.468Z,14.90
2017-05-15T19:36:26.425Z,14.80
2017-05-15T19:38:53.685Z,14.70
2017-05-15T19:41:20.682Z,14.60
2017-05-15T19:43:47.642Z,14.10
2017-05-15T19:46:14.568Z,14.20
2017-05-15T19:48:41.648Z,14.10
2017-05-15T19:51:08.653Z,14.20
2017-05-15T19:53:35.598Z,14.00
2017-05-15T19:56:02.567Z,14.10
2017-05-15T19:58:29.537Z,13.90
2017-05-15T20:00:56.478Z,13.70
2017-05-15T20:03:23.450Z,13.40
2017-05-15T20:05:50.432Z,13.40
2017-05-15T20:08:17.416Z,13.20
2017-05-15T20:10:44.364Z,13.10
2017-05-15T20:13:11.344Z,13.00
2017-05-15T20:15:39.086Z,13.10
2017-05-15T20:18:06.022Z,13.10
2017-05-15T20:20:32.986Z,12.80
2017-05-15T20:22:59.999Z,12.60
2017-05-15T20:25:26.942Z,12.60
2017-05-15T20:27:53.887Z,12.90
2017-05-15T20:30:20.881Z,12.80
2017-05-15T20:32:48.661Z,12.60
2017-05-15T20:35:15.615Z,12.60
2017-05-15T20:37:42.606Z,12.40
2017-05-15T20:40:09.542Z,12.30
2017-05-15T20:42:36.486Z,12.50
2017-05-15T20:45:03.488Z,12.60
2017-05-15T20:47:30.456Z,12.30
2017-05-15T20:49:57.389Z,12.30
2017-05-15T20:52:24.413Z,12.50
2017-05-15T20:54:52.104Z,12.40
2017-05-15T20:57:19.104Z,12.40
2017-05-15T20:59:46.801Z,12.50
2017-05-15T21:02:14.153Z,12.60
2017-05-15T21:04:41.112Z,12.60
2017-05-15T21:07:08.081Z,12.50
2017-05-15T21:09:35.013Z,12.50
2017-05-15T21:12:01.953Z,12.50
2017-05-15T21:14:28.925Z,12.30
2017-05-15T21:16:55.856Z,12.30
2017-05-15T21:19:22.796Z,12.20
2017-05-15T21:21:49.783Z,12.20
2017-05-15T21:24:17.449Z,12.00
2017-05-15T21:26:45.124Z,11.60
2017-05-15T21:29:12.094Z,11.40
2017-05-15T21:31:39.061Z,11.40
2017-05-15T21:34:06.005Z,11.20
2017-05-15T21:36:32.980Z,11.10
2017-05-15T21:38:59.913Z,11.20
2017-05-15T21:41:26.856Z,11.40
2017-05-15T21:43:53.792Z,11.30
2017-05-15T21:46:20.718Z,11.20
2017-05-15T21:48:47.697Z,11.40
2017-05-15T21:51:14.632Z,11.40
2017-05-15T21:53:41.629Z,11.30
2017-05-15T21:56:08.593Z,11.20
2017-05-15T21:58:35.560Z,11.20
2017-05-15T22:01:02.494Z,11.20
2017-05-15T22:03:29.497Z,11.10
2017-05-15T22:05:56.459Z,11.10
2017-05-15T22:08:23.460Z,11.10
2017-05-15T22:10:50.429Z,11.00
2017-05-15T22:13:18.124Z,10.90
2017-05-15T22:15:45.057Z,11.00
2017-05-15T22:18:12.081Z,11.00
2017-05-15T22:20:39.021Z,11.10
2017-05-15T22:23:05.947Z,11.00
2017-05-15T22:25:32.903Z,10.90
2017-05-15T22:27:59.827Z,10.80
2017-05-15T22:30:26.897Z,10.80
2017-05-15T22:32:54.564Z,10.80
2017-05-15T22:35:22.224Z,10.80
2017-05-15T22:37:49.933Z,10.80
2017-05-15T22:40:16.876Z,10.80
2017-05-15T22:42:43.810Z,10.80
2017-05-15T22:45:10.768Z,10.80
2017-05-15T22:47:37.705Z,10.80
2017-05-15T22:50:04.629Z,10.80
2017-05-15T22:52:31.596Z,10.80
2017-05-15T22:54:58.528Z,10.90
2017-05-15T22:57:25.455Z,11.00
2017-05-15T22:59:52.420Z,11.10
2017-05-15T23:02:19.361Z,11.00
2017-05-15T23:04:46.301Z,11.10
2017-05-15T23:07:13.285Z,11.10
2017-05-15T23:09:40.200Z,11.20
2017-05-15T23:12:07.129Z,11.20
2017-05-15T23:14:34.089Z,11.10
2017-05-15T23:17:01.013Z,11.00
2017-05-15T23:19:27.957Z,11.00
2017-05-15T23:21:54.961Z,10.90
2017-05-15T23:24:21.873Z,11.00
2017-05-15T23:26:48.857Z,10.80
2017-05-15T23:29:15.784Z,10.70
2017-05-15T23:31:42.715Z,10.60
2017-05-15T23:34:09.684Z,10.70
2017-05-15T23:36:36.610Z,10.70
2017-05-15T23:39:03.580Z,10.70
2017-05-15T23:41:30.559Z,10.60
2017-05-15T23:43:57.480Z,10.50
2017-05-15T23:46:25.141Z,10.40
2017-05-15T23:48:52.841Z,10.50
2017-05-15T23:51:19.777Z,10.50
2017-05-15T23:53:46.692Z,10.50
2017-05-15T23:56:14.404Z,10.40
2017-05-15T23:58:41.334Z,10.30
